KICL/ICL METAR and TAF weather

Enter ICAO airport designator
Station Type Date Time Source
KICL METAR 2020/09/20 14:15 UTC NOAA

KICL 201415Z AUTO 18010KT 10SM CLR 14/10 A3025 RMK AO2


Station Type Date Time Source
KICL Decoded METAR 2020/09/20 14:15 UTC NOAA

Clarinda, IA, United States (KICL) 40-43N 095-02W
Sep 20, 2020 - 10:15 AM EDT / 2020.09.20 1415 UTC
Wind: from the S (180 degrees) at 12 MPH (10 KT):0
Visibility: 10 mile(s):0
Sky conditions: clear
Temperature: 57 F (14 C)
Dew Point: 50 F (10 C)
Relative Humidity: 76%
Pressure (altimeter): 30.25 in. Hg (1024 hPa)
ob: KICL 201415Z AUTO 18010KT 10SM CLR 14/10 A3025 RMK AO2
cycle: 14

Station Type Date Time Source
KICL TAF UTC NOAA

Error!

Example: see airport list